首页
METAR-TAF:

METAR-TAF

机场 :

杜尚别机场

杜尚别, 塔吉克斯坦

纬度: 38-33N, 经度: 068-47E, 海拔: 803米

当前天气观测

该预报发布于25分钟前的21:30 UTC
风速2节,风向多变
温度 14°C
湿度 77%
气压 1018 hPa
能见度10公里或以上

METAR: UTDD 262130Z VRB01MPS 9999 NSC 14/10 Q1018 R09/D NOSIG RMK QFE695/0927

时间: 02:55 (21:55 UTC)

预报

该预报发布于55分钟前的21:00 UTC
预报有效从26日的 22点(UTC)到 27日的 10点(UTC)
风速4节,风向多变
能見度: 6000
少量云层高于6600英尺, 积雨云.
散云层高于15000英尺

TAF: UTDD 262100Z 2622/2710 VRB02MPS 6000 FEW066CB SCT150

超过4000个机场的气象观测和天气预报(METAR&TAF报告)。

可查询的气象台以黄色和红色小点在地图上表示。

将鼠标移到小点上方,可查看气象台名称。

然后点击查看天气观测和预报。

如需切换地图:点击带黑十字的绿色按钮放大地图;点击带横线的绿色按钮缩小地图;或者点击绿色箭头查看邻近地区的地图。


METAR-TAF: